• Join FlightAware (Why Join?)
  • Login
  • US Flag 
10:57AM EDT


 

Airport Tracker/Info


-or-


 

Live Flight TrackerFlight Track Log ✈ THY2459 ✈ 25-Oct-2013 ✈ LTAF / ADA - LTBA / IST

Flight Track Log - Related Links

Times and Time Zones

All times are in EDT time to prevent confusion due to time zone crossing. See the THY2459 flight status page for this flight to view local times or setup timezone preferences in your user account.

Time Position Orientation Groundspeed Altitude Reporting Facility
EDT Latitude Longitude Course Direction KTS MPH feet Rate Location/Type
04:32AM 37.4705 34.5569 311° West  Level Estimated
04:33AM 37.5312 34.4658 310° West  Level Estimated
04:34AM 37.5919 34.3745 310° West  Level Estimated
04:35AM 37.6525 34.2831 310° West  Level Estimated
04:36AM 37.7130 34.1916 310° West  Level Estimated
04:37AM 37.7734 34.0999 310° West  Level Estimated
04:38AM 37.8338 34.0080 310° West  Level Estimated
04:39AM 37.8941 33.9160 310° West  Level Estimated
04:40AM 37.9543 33.8239 310° West  Level Estimated
04:41AM 38.0145 33.7316 310° West  Level Estimated
04:42AM 38.0746 33.6391 310° West  Level Estimated
04:43AM 38.1346 33.5465 310° West  Level Estimated
04:44AM 38.1945 33.4538 309° West  Level Estimated
04:45AM 38.2544 33.3609 309° West  Level Estimated
04:46AM 38.3142 33.2678 309° West  Level Estimated
04:47AM 38.3739 33.1746 309° West  Level Estimated
04:48AM 38.4336 33.0812 309° West  Level Estimated
04:49AM 38.4931 32.9877 309° West  Level Estimated
04:50AM 38.5526 32.8940 309° West  Level Estimated
04:51AM 38.6120 32.8002 309° West  Level Estimated
04:52AM 38.6714 32.7062 309° West  Level Estimated
04:53AM 38.7307 32.6121 309° West  Level Estimated
04:54AM 38.7899 32.5178 309° West  Level Estimated
04:55AM 38.8490 32.4233 309° West  Level Estimated
04:56AM 38.9080 32.3287 309° West  Level Estimated
04:57AM 38.9670 32.2339 309° West  Level Estimated
04:58AM 39.0259 32.1390 309° West  Level Estimated
04:59AM 39.0847 32.0439 309° West  Level Estimated
05:00AM 39.1435 31.9487 309° West  Level Estimated
05:01AM 39.2021 31.8533 308° West  Level Estimated
05:02AM 39.2607 31.7577 308° West  Level Estimated
05:03AM 39.3192 31.6620 308° West  Level Estimated
05:04AM 39.3776 31.5661 308° West  Level Estimated
05:05AM 39.4360 31.4701 308° West  Level Estimated
05:06AM 39.4942 31.3738 308° West  Level Estimated
05:07AM 39.5524 31.2775 308° West  Level Estimated
05:08AM 39.6105 31.1809 308° West  Level Estimated
05:09AM 39.6686 31.0842 308° West  Level Estimated
05:10AM 39.7265 30.9874 308° West  Level Estimated
05:11AM 39.7844 30.8904 308° West  Level Estimated
05:12AM 39.8422 30.7932 308° West  Level Estimated
05:13AM 39.8999 30.6959 308° West  Level Estimated
05:14AM 39.9575 30.5984 308° West  Level Estimated
05:15AM 40.0150 30.5007 308° West  Level Estimated
05:16AM 40.0725 30.4028 308° West  Level Estimated
05:17AM 40.1299 30.3048 307° West  Level Estimated
05:18AM 40.1872 30.2067 307° West  Level Estimated
05:19AM 40.2444 30.1083 307° West  Level Estimated
05:20AM 40.3015 30.0098 307° West  Level Estimated
05:21AM 40.3586 29.9112 307° West  Level Estimated
05:22AM 40.4155 29.8123 307° West  Level Estimated
05:23AM 40.4724 29.7134 307° West  Level Estimated
05:24AM 40.5292 29.6142 307° West  Level Estimated
05:25AM 40.5859 29.5149 307° West  Level Estimated
05:26AM 40.6425 29.4153 307° West  Level Estimated
05:27AM 40.6991 29.3157 307° West  Level Estimated
05:28AM 40.7555 29.2158 307° West  Level Estimated
05:29AM 40.8119 29.1158 307° West  Level Estimated
05:30AM 40.8681 29.0156 307° West  Level Estimated
05:31AM 40.9243 28.9153 307° West  Level Estimated
05:32AM 40.9769 28.8211 306° West  Level Estimated
05:33AM 40.9769 28.8211 21° North  Level Estimated
05:34AM 40.9769 28.8211 21° North  Level Estimated
05:35AM 40.9769 28.8211 21° North  Level Estimated
05:36AM 40.9769 28.8211 21° North  Level Estimated
05:37AM 40.9769 28.8211 21° North  Level Estimated
05:38AM 40.9769 28.8211 21° North  Level Estimated
05:39AM 40.9769 28.8211 21° North  Level Estimated
05:40AM 40.9769 28.8211 21° North  Level Estimated
05:41AM 40.9769 28.8211 21° North  Level Estimated
05:42AM 40.9769 28.8211 21° North  Level Estimated
05:43AM 40.9769 28.8211 21° North  Level Estimated